createdAt,value
2017-06-01T00:01:29.302Z,0
2017-06-01T00:03:53.493Z,0
2017-06-01T00:06:09.230Z,0
2017-06-01T00:08:25.018Z,0
2017-06-01T00:10:49.242Z,0
2017-06-01T00:13:05.029Z,0
2017-06-01T00:15:29.217Z,0
2017-06-01T00:17:53.401Z,0
2017-06-01T00:20:17.579Z,0
2017-06-01T00:24:43.204Z,0
2017-06-01T00:27:07.413Z,0
2017-06-01T00:29:31.573Z,0
2017-06-01T00:31:55.779Z,0
2017-06-01T00:34:19.954Z,0
2017-06-01T00:38:45.549Z,0
2017-06-01T00:41:09.762Z,0
2017-06-01T00:43:17.113Z,0
2017-06-01T00:45:41.331Z,0
2017-06-01T00:48:05.515Z,0
2017-06-01T00:50:29.704Z,0
2017-06-01T00:52:53.884Z,0
2017-06-01T00:55:18.082Z,0
2017-06-01T00:57:42.258Z,0
2017-06-01T01:00:06.442Z,0
2017-06-01T01:02:30.634Z,0
2017-06-01T01:04:46.377Z,0
2017-06-01T01:07:10.493Z,0
2017-06-01T01:09:34.677Z,0
2017-06-01T01:11:58.866Z,0
2017-06-01T01:14:23.042Z,0
2017-06-01T01:16:47.234Z,0
2017-06-01T01:19:11.412Z,0
2017-06-01T01:21:35.606Z,0
2017-06-01T01:23:59.786Z,0
2017-06-01T01:26:23.971Z,0
2017-06-01T01:30:49.660Z,0
2017-06-01T01:33:13.789Z,0
2017-06-01T01:35:37.965Z,0
2017-06-01T01:41:56.335Z,0
2017-06-01T01:44:20.433Z,0
2017-06-01T01:46:44.510Z,0
2017-06-01T01:49:08.588Z,0
2017-06-01T01:51:32.664Z,0
2017-06-01T01:53:48.350Z,0
2017-06-01T01:56:12.431Z,0
2017-06-01T01:58:36.533Z,0
2017-06-01T02:01:00.592Z,0
2017-06-01T02:03:16.260Z,0
2017-06-01T02:05:40.361Z,0
2017-06-01T02:08:04.449Z,0
2017-06-01T02:10:28.533Z,0
2017-06-01T02:12:52.609Z,0
2017-06-01T02:15:16.699Z,0
2017-06-01T02:17:32.324Z,0
2017-06-01T02:19:56.365Z,0
2017-06-01T02:22:12.000Z,0
2017-06-01T02:24:27.688Z,0
2017-06-01T02:26:51.809Z,0
2017-06-01T02:29:07.467Z,0
2017-06-01T02:33:41.510Z,0
2017-06-01T02:36:05.597Z,0
2017-06-01T02:38:29.681Z,0
2017-06-01T02:40:53.766Z,0
2017-06-01T02:43:09.338Z,0
2017-06-01T02:47:34.992Z,0
2017-06-01T02:52:00.374Z,0
2017-06-01T02:54:24.405Z,0
2017-06-01T02:58:49.832Z,0
2017-06-01T03:01:13.911Z,0
2017-06-01T03:03:37.979Z,0
2017-06-01T03:06:02.075Z,0
2017-06-01T03:08:26.172Z,0
2017-06-01T03:10:50.226Z,0
2017-06-01T03:15:15.700Z,0
2017-06-01T03:17:39.844Z,0
2017-06-01T03:20:03.933Z,0
2017-06-01T03:22:19.610Z,0
2017-06-01T03:24:43.692Z,0
2017-06-01T03:26:59.336Z,0
2017-06-01T03:29:23.367Z,0
2017-06-01T03:31:47.441Z,5
2017-06-01T03:34:11.534Z,5
2017-06-01T03:36:35.599Z,5
2017-06-01T03:38:59.681Z,5
2017-06-01T03:41:23.782Z,5
2017-06-01T03:43:47.848Z,10
2017-06-01T03:46:11.941Z,10
2017-06-01T03:48:36.014Z,15
2017-06-01T03:53:01.494Z,15
2017-06-01T03:55:25.548Z,20
2017-06-01T03:59:42.551Z,20
2017-06-01T04:02:06.642Z,25
2017-06-01T04:04:30.724Z,25
2017-06-01T04:06:54.822Z,30
2017-06-01T04:09:18.896Z,30
2017-06-01T04:11:42.969Z,35
2017-06-01T04:14:07.052Z,40
2017-06-01T04:16:22.705Z,40
2017-06-01T04:18:46.735Z,45
2017-06-01T04:21:10.820Z,55
2017-06-01T04:23:34.897Z,65
2017-06-01T04:25:58.991Z,85
2017-06-01T04:28:23.208Z,90
2017-06-01T04:32:50.329Z,100
2017-06-01T04:35:06.535Z,100
2017-06-01T04:37:31.251Z,110
2017-06-01T04:39:56.183Z,120
2017-06-01T04:42:21.327Z,125
2017-06-01T04:44:46.568Z,130
2017-06-01T04:47:11.926Z,135
2017-06-01T04:49:37.392Z,140
2017-06-01T04:52:02.944Z,145
2017-06-01T04:54:28.680Z,155
2017-06-01T04:56:37.374Z,155
2017-06-01T04:58:46.219Z,160
2017-06-01T05:01:12.110Z,160
2017-06-01T05:03:38.073Z,160
2017-06-01T05:05:55.547Z,175
2017-06-01T05:08:21.634Z,175
2017-06-01T05:10:47.809Z,170
2017-06-01T05:13:15.722Z,185
2017-06-01T05:15:41.872Z,195
2017-06-01T05:18:08.026Z,210
2017-06-01T05:20:34.281Z,220
2017-06-01T05:23:00.638Z,220
2017-06-01T05:25:27.095Z,235
2017-06-01T05:27:53.558Z,240
2017-06-01T05:30:20.090Z,250
2017-06-01T05:32:46.671Z,260
2017-06-01T05:35:13.315Z,270
2017-06-01T05:37:39.989Z,285
2017-06-01T05:39:58.138Z,305
2017-06-01T05:42:25.109Z,320
2017-06-01T05:47:02.997Z,360
2017-06-01T05:49:30.801Z,495
2017-06-01T05:51:57.641Z,1385
2017-06-01T05:54:25.583Z,1290
2017-06-01T05:58:55.079Z,1345
2017-06-01T06:01:23.059Z,1370
2017-06-01T06:03:51.043Z,1215
2017-06-01T06:06:18.093Z,1460
2017-06-01T06:08:45.166Z,1315
2017-06-01T06:11:12.193Z,1445
2017-06-01T06:13:41.342Z,1445
2017-06-01T06:16:09.535Z,1490
2017-06-01T06:18:43.323Z,930
2017-06-01T06:21:10.454Z,340
2017-06-01T06:23:38.470Z,275
2017-06-01T06:26:06.200Z,395
2017-06-01T06:28:32.630Z,405
2017-06-01T06:30:58.998Z,325
2017-06-01T06:33:16.729Z,250
2017-06-01T06:35:42.601Z,220
2017-06-01T06:38:08.522Z,200
2017-06-01T06:40:25.760Z,185
2017-06-01T06:42:51.487Z,185
2017-06-01T06:45:16.985Z,170
2017-06-01T06:47:42.457Z,165
2017-06-01T06:50:07.868Z,175
2017-06-01T06:52:33.272Z,210
2017-06-01T06:54:58.563Z,255
2017-06-01T06:57:23.887Z,320
2017-06-01T06:59:49.049Z,285
2017-06-01T07:02:14.246Z,600
2017-06-01T07:04:39.511Z,550
2017-06-01T07:07:04.813Z,595
2017-06-01T07:09:30.167Z,535
2017-06-01T07:11:55.570Z,455
2017-06-01T07:14:21.111Z,435
2017-06-01T07:16:46.657Z,455
2017-06-01T07:21:23.009Z,585
2017-06-01T07:23:49.553Z,680
2017-06-01T07:26:15.057Z,665
2017-06-01T07:28:40.633Z,635
2017-06-01T07:31:06.112Z,645
2017-06-01T07:33:31.618Z,700
2017-06-01T07:37:33.424Z,670
2017-06-01T07:39:59.024Z,540
2017-06-01T07:42:25.572Z,545
2017-06-01T07:44:51.191Z,515
2017-06-01T07:47:16.716Z,495
2017-06-01T07:49:42.355Z,485
2017-06-01T07:54:01.405Z,450
2017-06-01T07:56:18.657Z,435
2017-06-01T07:58:44.513Z,465
2017-06-01T08:01:10.344Z,450
2017-06-01T08:03:36.161Z,415
2017-06-01T08:06:01.996Z,310
2017-06-01T08:08:27.807Z,320
2017-06-01T08:10:53.639Z,350
2017-06-01T08:13:19.462Z,350
2017-06-01T08:15:45.286Z,400
2017-06-01T08:18:02.548Z,305
2017-06-01T08:20:28.346Z,330
2017-06-01T08:22:54.003Z,330
2017-06-01T08:25:19.649Z,345
2017-06-01T08:27:36.828Z,325
2017-06-01T08:30:02.422Z,385
2017-06-01T08:32:28.053Z,375
2017-06-01T08:34:45.150Z,375
2017-06-01T08:37:10.797Z,375
2017-06-01T08:39:36.416Z,380
2017-06-01T08:42:02.029Z,375
2017-06-01T08:44:19.126Z,360
2017-06-01T08:46:44.780Z,355
2017-06-01T08:49:10.399Z,375
2017-06-01T08:51:36.124Z,350
2017-06-01T08:54:01.851Z,345
2017-06-01T08:56:27.442Z,330
2017-06-01T08:58:53.186Z,315
2017-06-01T09:01:18.898Z,205
2017-06-01T09:03:44.615Z,300
2017-06-01T09:08:12.562Z,265
2017-06-01T09:10:38.214Z,320
2017-06-01T09:14:57.062Z,250
2017-06-01T09:19:07.328Z,225
2017-06-01T09:23:35.270Z,225
2017-06-01T09:27:54.332Z,215
2017-06-01T09:30:19.981Z,215
2017-06-01T09:32:45.714Z,210
2017-06-01T09:35:11.420Z,215
2017-06-01T09:37:37.134Z,210
2017-06-01T09:40:02.849Z,210
2017-06-01T09:42:20.051Z,205
2017-06-01T09:44:45.796Z,205
2017-06-01T09:47:11.494Z,205
2017-06-01T09:49:37.118Z,205
2017-06-01T09:51:54.210Z,200
2017-06-01T09:54:11.315Z,205
2017-06-01T09:56:36.860Z,200
2017-06-01T09:58:53.943Z,200
2017-06-01T10:01:10.970Z,200
2017-06-01T10:03:28.003Z,195
2017-06-01T10:05:53.656Z,120
2017-06-01T10:08:19.238Z,120
2017-06-01T10:10:44.729Z,120
2017-06-01T10:13:10.238Z,120
2017-06-01T10:15:35.552Z,115
2017-06-01T10:17:52.369Z,135
2017-06-01T10:20:17.707Z,110
2017-06-01T10:22:42.999Z,105
2017-06-01T10:27:01.987Z,105
2017-06-01T10:29:27.240Z,110
2017-06-01T10:31:43.869Z,110
2017-06-01T10:34:09.002Z,115
2017-06-01T10:36:34.100Z,115
2017-06-01T10:39:00.214Z,165
2017-06-01T10:41:25.316Z,165
2017-06-01T10:43:50.460Z,120
2017-06-01T10:46:15.604Z,105
2017-06-01T10:48:40.731Z,100
2017-06-01T10:50:48.868Z,95
2017-06-01T10:53:13.994Z,100
2017-06-01T10:55:39.032Z,100
2017-06-01T11:02:08.568Z,145
2017-06-01T11:04:33.675Z,145
2017-06-01T11:09:00.972Z,145
2017-06-01T11:11:26.058Z,140
2017-06-01T11:13:42.622Z,135
2017-06-01T11:16:07.736Z,140
2017-06-01T11:18:32.868Z,130
2017-06-01T11:20:57.974Z,130
2017-06-01T11:23:23.120Z,130
2017-06-01T11:25:49.286Z,130
2017-06-01T11:28:14.422Z,130
2017-06-01T11:30:39.525Z,130
2017-06-01T11:35:15.431Z,125
2017-06-01T11:37:40.578Z,120
2017-06-01T11:39:57.192Z,90
2017-06-01T11:42:13.816Z,90
2017-06-01T11:44:38.949Z,115
2017-06-01T11:46:55.518Z,120
2017-06-01T11:49:20.646Z,105
2017-06-01T11:51:45.757Z,120
2017-06-01T11:54:10.893Z,120
2017-06-01T11:56:36.013Z,95
2017-06-01T11:59:01.133Z,100
2017-06-01T12:01:26.342Z,115
2017-06-01T12:03:51.443Z,90
2017-06-01T12:06:16.555Z,85
2017-06-01T12:12:45.494Z,80
2017-06-01T12:15:10.590Z,85
2017-06-01T12:19:20.733Z,85
2017-06-01T12:21:45.756Z,85
2017-06-01T12:26:04.361Z,80
2017-06-01T12:28:12.374Z,85
2017-06-01T12:30:37.287Z,110
2017-06-01T12:33:02.223Z,115
2017-06-01T12:35:18.662Z,105
2017-06-01T12:37:43.587Z,105
2017-06-01T12:40:08.554Z,105
2017-06-01T12:44:35.624Z,100
2017-06-01T12:47:00.627Z,105
2017-06-01T12:49:26.655Z,90
2017-06-01T12:51:51.696Z,100
2017-06-01T12:54:08.276Z,95
2017-06-01T12:56:33.301Z,90
2017-06-01T12:58:58.372Z,90
2017-06-01T13:01:23.451Z,90
2017-06-01T13:03:48.538Z,75
2017-06-01T13:06:13.628Z,85
2017-06-01T13:08:30.186Z,85
2017-06-01T13:10:55.209Z,85
2017-06-01T13:13:20.244Z,90
2017-06-01T13:15:45.221Z,65
2017-06-01T13:18:10.262Z,65
2017-06-01T13:20:35.271Z,80
2017-06-01T13:23:00.280Z,85
2017-06-01T13:25:16.794Z,85
2017-06-01T13:27:41.774Z,90
2017-06-01T13:30:06.761Z,90
2017-06-01T13:32:31.767Z,70
2017-06-01T13:34:56.795Z,70
2017-06-01T13:37:21.847Z,75
2017-06-01T13:39:46.852Z,80
2017-06-01T13:42:11.840Z,75
2017-06-01T13:46:30.453Z,70
2017-06-01T13:48:55.393Z,70
2017-06-01T13:51:20.382Z,70
2017-06-01T13:53:45.308Z,75
2017-06-01T13:56:10.241Z,75
2017-06-01T13:58:35.202Z,75
2017-06-01T14:01:00.148Z,75
2017-06-01T14:07:29.420Z,85
2017-06-01T14:09:54.389Z,90
2017-06-01T14:14:21.586Z,90
2017-06-01T14:18:57.191Z,90
2017-06-01T14:21:22.167Z,90
2017-06-01T14:23:47.180Z,90
2017-06-01T14:26:12.212Z,85
2017-06-01T14:28:37.190Z,90
2017-06-01T14:31:02.222Z,90
2017-06-01T14:33:27.269Z,85
2017-06-01T14:37:45.946Z,85
2017-06-01T14:40:11.001Z,85
2017-06-01T14:42:36.073Z,85
2017-06-01T14:45:01.165Z,85
2017-06-01T14:47:26.193Z,85
2017-06-01T14:49:51.222Z,85
2017-06-01T14:52:16.272Z,85
2017-06-01T14:54:41.332Z,80
2017-06-01T14:57:06.377Z,90
2017-06-01T14:59:22.942Z,85
2017-06-01T15:01:48.035Z,90
2017-06-01T15:04:13.122Z,90
2017-06-01T15:08:48.881Z,90
2017-06-01T15:11:13.956Z,85
2017-06-01T15:13:39.016Z,90
2017-06-01T15:16:04.068Z,90
2017-06-01T15:18:29.117Z,90
2017-06-01T15:20:54.156Z,80
2017-06-01T15:23:10.726Z,75
2017-06-01T15:25:27.288Z,75
2017-06-01T15:27:52.337Z,70
2017-06-01T15:30:17.383Z,80
2017-06-01T15:32:42.444Z,70
2017-06-01T15:35:07.444Z,70
2017-06-01T15:37:32.463Z,65
2017-06-01T15:39:58.447Z,65
2017-06-01T15:42:23.438Z,70
2017-06-01T15:44:39.938Z,60
2017-06-01T15:47:04.906Z,65
2017-06-01T15:49:29.865Z,60
2017-06-01T15:55:59.031Z,60
2017-06-01T15:58:24.015Z,60
2017-06-01T16:00:48.947Z,60
2017-06-01T16:03:13.859Z,55
2017-06-01T16:05:38.825Z,60
2017-06-01T16:07:55.276Z,50
2017-06-01T16:10:20.238Z,50
2017-06-01T16:12:45.207Z,50
2017-06-01T16:15:10.178Z,50
2017-06-01T16:17:26.659Z,50
2017-06-01T16:21:53.677Z,50
2017-06-01T16:24:10.118Z,55
2017-06-01T16:26:35.015Z,55
2017-06-01T16:28:59.900Z,55
2017-06-01T16:31:24.798Z,45
2017-06-01T16:33:41.233Z,45
2017-06-01T16:36:06.163Z,45
2017-06-01T16:38:22.570Z,55
2017-06-01T16:42:41.078Z,50
2017-06-01T16:45:06.038Z,40
2017-06-01T16:47:30.952Z,40
2017-06-01T16:49:55.816Z,45
2017-06-01T16:52:20.713Z,45
2017-06-01T16:54:45.585Z,45
2017-06-01T16:58:46.813Z,45
2017-06-01T17:01:03.198Z,50
2017-06-01T17:03:28.076Z,50
2017-06-01T17:05:52.931Z,45
2017-06-01T17:08:17.756Z,50
2017-06-01T17:10:42.521Z,50
2017-06-01T17:13:07.322Z,50
2017-06-01T17:15:32.124Z,50
2017-06-01T17:17:48.446Z,50
2017-06-01T17:20:13.296Z,50
2017-06-01T17:22:38.133Z,50
2017-06-01T17:25:03.007Z,45
2017-06-01T17:27:27.814Z,45
2017-06-01T17:29:52.647Z,45
2017-06-01T17:32:17.535Z,45
2017-06-01T17:34:42.415Z,45
2017-06-01T17:39:17.972Z,35
2017-06-01T17:41:42.830Z,35
2017-06-01T17:43:59.199Z,40
2017-06-01T17:46:24.030Z,40
2017-06-01T17:48:48.872Z,35
2017-06-01T17:50:56.693Z,35
2017-06-01T17:53:21.463Z,35
2017-06-01T17:57:48.485Z,35
2017-06-01T18:00:13.356Z,30
2017-06-01T18:02:29.781Z,30
2017-06-01T18:04:47.114Z,30
2017-06-01T18:07:11.956Z,30
2017-06-01T18:09:37.079Z,25
2017-06-01T18:12:01.802Z,25
2017-06-01T18:14:26.539Z,25
2017-06-01T18:16:51.323Z,25
2017-06-01T18:19:07.598Z,20
2017-06-01T18:21:15.435Z,20
2017-06-01T18:23:40.212Z,20
2017-06-01T18:26:04.936Z,20
2017-06-01T18:28:21.178Z,20
2017-06-01T18:30:45.908Z,15
2017-06-01T18:33:10.611Z,15
2017-06-01T18:35:35.312Z,15
2017-06-01T18:37:51.561Z,15
2017-06-01T18:42:18.341Z,10
2017-06-01T18:44:43.035Z,10
2017-06-01T18:47:07.732Z,10
2017-06-01T18:51:34.628Z,10
2017-06-01T18:53:59.341Z,10
2017-06-01T18:56:23.981Z,5
2017-06-01T18:58:40.186Z,5
2017-06-01T19:01:04.879Z,5
2017-06-01T19:03:12.640Z,5
2017-06-01T19:05:37.345Z,5
2017-06-01T19:08:02.017Z,5
2017-06-01T19:10:26.645Z,5
2017-06-01T19:12:51.284Z,0
2017-06-01T19:15:15.924Z,0
2017-06-01T19:17:40.549Z,0
2017-06-01T19:20:05.193Z,0
2017-06-01T19:24:31.944Z,0
2017-06-01T19:26:56.630Z,0
2017-06-01T19:29:12.788Z,0
2017-06-01T19:31:37.381Z,0
2017-06-01T19:36:04.118Z,0
2017-06-01T19:40:39.303Z,0
2017-06-01T19:43:03.877Z,0
2017-06-01T19:45:28.421Z,0
2017-06-01T19:47:52.958Z,0
2017-06-01T19:50:17.537Z,0
2017-06-01T19:52:42.160Z,0
2017-06-01T19:55:06.758Z,0
2017-06-01T19:57:31.267Z,0
2017-06-01T19:59:55.848Z,0
2017-06-01T20:02:20.391Z,0
2017-06-01T20:06:46.983Z,0
2017-06-01T20:09:11.565Z,0
2017-06-01T20:11:36.116Z,0
2017-06-01T20:14:00.660Z,0
2017-06-01T20:18:27.207Z,0
2017-06-01T20:22:53.840Z,0
2017-06-01T20:25:18.346Z,0
2017-06-01T20:27:42.886Z,0
2017-06-01T20:30:07.427Z,0
2017-06-01T20:32:31.963Z,0
2017-06-01T20:34:56.468Z,0
2017-06-01T20:37:20.952Z,0
2017-06-01T20:39:45.462Z,0
2017-06-01T20:42:09.964Z,0
2017-06-01T20:44:34.461Z,0
2017-06-01T20:46:58.970Z,0
2017-06-01T20:49:06.547Z,0
2017-06-01T20:51:31.035Z,0
2017-06-01T20:55:57.494Z,0
2017-06-01T20:58:21.980Z,0
2017-06-01T21:00:46.479Z,0
2017-06-01T21:03:10.932Z,0
2017-06-01T21:05:35.447Z,0
2017-06-01T21:07:59.935Z,0
2017-06-01T21:12:34.979Z,0
2017-06-01T21:14:51.014Z,0
2017-06-01T21:17:07.014Z,0
2017-06-01T21:19:31.430Z,0
2017-06-01T21:21:55.858Z,0
2017-06-01T21:24:20.305Z,0
2017-06-01T21:26:36.290Z,0
2017-06-01T21:28:52.289Z,0
2017-06-01T21:31:16.725Z,0
2017-06-01T21:33:41.299Z,0
2017-06-01T21:35:57.340Z,0
2017-06-01T21:38:13.315Z,0
2017-06-01T21:40:29.321Z,0
2017-06-01T21:42:53.775Z,0
2017-06-01T21:45:20.356Z,0
2017-06-01T21:47:44.794Z,0
2017-06-01T21:50:09.292Z,0
2017-06-01T21:52:16.917Z,0
2017-06-01T21:54:41.366Z,0
2017-06-01T21:57:05.867Z,0
2017-06-01T21:59:30.353Z,0
2017-06-01T22:01:46.375Z,0
2017-06-01T22:04:10.821Z,0
2017-06-01T22:08:36.782Z,0
2017-06-01T22:11:01.269Z,0
2017-06-01T22:13:25.750Z,0
2017-06-01T22:15:50.243Z,0
2017-06-01T22:20:16.118Z,0
2017-06-01T22:22:40.572Z,0
2017-06-01T22:26:59.167Z,0
2017-06-01T22:29:23.570Z,0
2017-06-01T22:31:48.020Z,0
2017-06-01T22:34:12.413Z,0
2017-06-01T22:36:28.435Z,0
2017-06-01T22:38:52.911Z,0
2017-06-01T22:41:18.298Z,0
2017-06-01T22:43:42.804Z,0
2017-06-01T22:46:07.292Z,0
2017-06-01T22:48:23.273Z,0
2017-06-01T22:50:39.208Z,0
2017-06-01T22:53:03.537Z,0
2017-06-01T22:55:27.951Z,0
2017-06-01T22:59:54.274Z,0
2017-06-01T23:02:18.679Z,0
2017-06-01T23:04:43.064Z,0
2017-06-01T23:07:07.449Z,0
2017-06-01T23:11:41.869Z,0
2017-06-01T23:14:06.278Z,0
2017-06-01T23:16:30.681Z,0
2017-06-01T23:18:46.613Z,0
2017-06-01T23:21:11.053Z,0
2017-06-01T23:23:35.434Z,0
2017-06-01T23:25:59.818Z,0
2017-06-01T23:28:24.211Z,0
2017-06-01T23:30:40.084Z,0
2017-06-01T23:33:04.528Z,0
2017-06-01T23:37:30.296Z,0
2017-06-01T23:39:37.817Z,0
2017-06-01T23:42:02.099Z,0
2017-06-01T23:44:26.499Z,0
2017-06-01T23:46:50.897Z,0
2017-06-01T23:49:15.280Z,0
2017-06-01T23:51:39.667Z,0
2017-06-01T23:54:03.971Z,0
2017-06-01T23:58:38.441Z,0
